sensor_id;sensor_type;location;lat;lon;timestamp;temperature;humidity
26954;DHT22;14508;50.924;11.600;2023-09-30T00:00:58;16.40;99.90
26954;DHT22;14508;50.924;11.600;2023-09-30T00:03:27;16.40;99.90
26954;DHT22;14508;50.924;11.600;2023-09-30T00:05:55;16.40;99.90
26954;DHT22;14508;50.924;11.600;2023-09-30T00:08:25;16.30;99.90
26954;DHT22;14508;50.924;11.600;2023-09-30T00:10:54;16.30;99.90
26954;DHT22;14508;50.924;11.600;2023-09-30T00:13:22;16.30;99.90
26954;DHT22;14508;50.924;11.600;2023-09-30T00:15:50;16.30;99.90
26954;DHT22;14508;50.924;11.600;2023-09-30T00:18:18;16.30;99.90
26954;DHT22;14508;50.924;11.600;2023-09-30T00:20:46;16.30;99.90
26954;DHT22;14508;50.924;11.600;2023-09-30T00:23:15;16.30;99.90
26954;DHT22;14508;50.924;11.600;2023-09-30T00:25:44;16.30;99.90
26954;DHT22;14508;50.924;11.600;2023-09-30T00:28:13;16.30;99.90
26954;DHT22;14508;50.924;11.600;2023-09-30T00:30:41;16.30;99.90
26954;DHT22;14508;50.924;11.600;2023-09-30T00:33:13;16.30;99.90
26954;DHT22;14508;50.924;11.600;2023-09-30T00:35:41;16.30;99.90
26954;DHT22;14508;50.924;11.600;2023-09-30T00:38:09;16.30;99.90
26954;DHT22;14508;50.924;11.600;2023-09-30T00:40:37;16.30;99.90
26954;DHT22;14508;50.924;11.600;2023-09-30T00:43:07;16.30;99.90
26954;DHT22;14508;50.924;11.600;2023-09-30T00:45:45;16.30;99.90
26954;DHT22;14508;50.924;11.600;2023-09-30T00:48:13;16.30;99.90
26954;DHT22;14508;50.924;11.600;2023-09-30T00:50:42;16.30;99.90
26954;DHT22;14508;50.924;11.600;2023-09-30T00:53:10;16.30;99.90
26954;DHT22;14508;50.924;11.600;2023-09-30T00:55:38;16.30;99.90
26954;DHT22;14508;50.924;11.600;2023-09-30T00:58:07;16.40;99.90
26954;DHT22;14508;50.924;11.600;2023-09-30T01:00:35;16.30;99.90
26954;DHT22;14508;50.924;11.600;2023-09-30T01:03:04;16.40;99.90
26954;DHT22;14508;50.924;11.600;2023-09-30T01:05:33;16.40;99.90
26954;DHT22;14508;50.924;11.600;2023-09-30T01:08:02;16.40;99.90
26954;DHT22;14508;50.924;11.600;2023-09-30T01:10:30;16.40;99.90
26954;DHT22;14508;50.924;11.600;2023-09-30T01:12:59;16.40;99.90
26954;DHT22;14508;50.924;11.600;2023-09-30T01:15:29;16.40;99.90
26954;DHT22;14508;50.924;11.600;2023-09-30T01:17:58;16.30;99.90
26954;DHT22;14508;50.924;11.600;2023-09-30T01:20:27;16.30;99.90
26954;DHT22;14508;50.924;11.600;2023-09-30T01:22:57;16.30;99.90
26954;DHT22;14508;50.924;11.600;2023-09-30T01:25:25;16.20;99.90
26954;DHT22;14508;50.924;11.600;2023-09-30T01:27:54;16.20;99.90
26954;DHT22;14508;50.924;11.600;2023-09-30T01:30:22;16.20;99.90
26954;DHT22;14508;50.924;11.600;2023-09-30T01:32:50;16.20;99.90
26954;DHT22;14508;50.924;11.600;2023-09-30T01:35:18;16.20;99.90
26954;DHT22;14508;50.924;11.600;2023-09-30T01:37:46;16.20;99.90
26954;DHT22;14508;50.924;11.600;2023-09-30T01:40:15;16.20;99.90
26954;DHT22;14508;50.924;11.600;2023-09-30T01:42:45;16.20;99.90
26954;DHT22;14508;50.924;11.600;2023-09-30T01:45:13;16.20;99.90
26954;DHT22;14508;50.924;11.600;2023-09-30T01:47:41;16.10;99.90
26954;DHT22;14508;50.924;11.600;2023-09-30T01:50:09;16.20;99.90
26954;DHT22;14508;50.924;11.600;2023-09-30T01:52:38;16.10;99.90
26954;DHT22;14508;50.924;11.600;2023-09-30T01:55:06;16.10;99.90
26954;DHT22;14508;50.924;11.600;2023-09-30T01:57:36;16.20;99.90
26954;DHT22;14508;50.924;11.600;2023-09-30T02:00:05;16.20;99.90
26954;DHT22;14508;50.924;11.600;2023-09-30T02:02:38;16.20;99.90
26954;DHT22;14508;50.924;11.600;2023-09-30T02:05:07;16.20;99.90
26954;DHT22;14508;50.924;11.600;2023-09-30T02:07:35;16.20;99.90
26954;DHT22;14508;50.924;11.600;2023-09-30T02:10:06;16.10;99.90
26954;DHT22;14508;50.924;11.600;2023-09-30T02:12:36;16.10;99.90
26954;DHT22;14508;50.924;11.600;2023-09-30T02:15:06;16.10;99.90
26954;DHT22;14508;50.924;11.600;2023-09-30T02:17:34;16.00;99.90
26954;DHT22;14508;50.924;11.600;2023-09-30T02:20:02;16.00;99.90
26954;DHT22;14508;50.924;11.600;2023-09-30T02:22:34;15.90;99.90
26954;DHT22;14508;50.924;11.600;2023-09-30T02:25:02;15.80;99.90
26954;DHT22;14508;50.924;11.600;2023-09-30T02:27:35;15.80;99.90
26954;DHT22;14508;50.924;11.600;2023-09-30T02:30:04;15.70;99.90
26954;DHT22;14508;50.924;11.600;2023-09-30T02:32:33;15.70;99.90
26954;DHT22;14508;50.924;11.600;2023-09-30T02:35:01;15.70;99.90
26954;DHT22;14508;50.924;11.600;2023-09-30T02:37:32;15.60;99.90
26954;DHT22;14508;50.924;11.600;2023-09-30T02:40:01;15.60;99.90
26954;DHT22;14508;50.924;11.600;2023-09-30T02:42:31;15.50;99.90
26954;DHT22;14508;50.924;11.600;2023-09-30T02:45:01;15.50;99.90
26954;DHT22;14508;50.924;11.600;2023-09-30T02:47:29;15.40;99.90
26954;DHT22;14508;50.924;11.600;2023-09-30T02:49:59;15.40;99.90
26954;DHT22;14508;50.924;11.600;2023-09-30T02:52:27;15.30;99.90
26954;DHT22;14508;50.924;11.600;2023-09-30T02:54:55;15.20;99.90
26954;DHT22;14508;50.924;11.600;2023-09-30T02:57:24;15.20;99.90
26954;DHT22;14508;50.924;11.600;2023-09-30T02:59:54;15.10;99.90
26954;DHT22;14508;50.924;11.600;2023-09-30T03:02:24;15.10;99.90
26954;DHT22;14508;50.924;11.600;2023-09-30T03:04:53;15.00;99.90
26954;DHT22;14508;50.924;11.600;2023-09-30T03:07:21;15.00;99.90
26954;DHT22;14508;50.924;11.600;2023-09-30T03:09:49;15.00;99.90
26954;DHT22;14508;50.924;11.600;2023-09-30T03:12:19;14.90;99.90
26954;DHT22;14508;50.924;11.600;2023-09-30T03:14:48;14.90;99.90
26954;DHT22;14508;50.924;11.600;2023-09-30T03:17:17;14.90;99.90
26954;DHT22;14508;50.924;11.600;2023-09-30T03:19:47;14.80;99.90
26954;DHT22;14508;50.924;11.600;2023-09-30T03:22:17;14.80;99.90
26954;DHT22;14508;50.924;11.600;2023-09-30T03:24:45;14.80;99.90
26954;DHT22;14508;50.924;11.600;2023-09-30T03:27:14;14.80;99.90
26954;DHT22;14508;50.924;11.600;2023-09-30T03:29:42;14.70;99.90
26954;DHT22;14508;50.924;11.600;2023-09-30T03:32:10;14.60;99.90
26954;DHT22;14508;50.924;11.600;2023-09-30T03:34:38;14.60;99.90
26954;DHT22;14508;50.924;11.600;2023-09-30T03:37:12;14.60;99.90
26954;DHT22;14508;50.924;11.600;2023-09-30T03:39:41;14.50;99.90
26954;DHT22;14508;50.924;11.600;2023-09-30T03:42:09;14.50;99.90
26954;DHT22;14508;50.924;11.600;2023-09-30T03:44:38;14.40;99.90
26954;DHT22;14508;50.924;11.600;2023-09-30T03:47:06;14.40;99.90
26954;DHT22;14508;50.924;11.600;2023-09-30T03:49:35;14.30;99.90
26954;DHT22;14508;50.924;11.600;2023-09-30T03:52:04;14.30;99.90
26954;DHT22;14508;50.924;11.600;2023-09-30T03:54:34;14.20;99.90
26954;DHT22;14508;50.924;11.600;2023-09-30T03:57:02;14.20;99.90
26954;DHT22;14508;50.924;11.600;2023-09-30T03:59:31;14.20;99.90
26954;DHT22;14508;50.924;11.600;2023-09-30T04:01:58;14.10;99.90
26954;DHT22;14508;50.924;11.600;2023-09-30T04:04:27;14.10;99.90
26954;DHT22;14508;50.924;11.600;2023-09-30T04:06:56;14.10;99.90
26954;DHT22;14508;50.924;11.600;2023-09-30T04:09:24;14.10;99.90
26954;DHT22;14508;50.924;11.600;2023-09-30T04:11:54;14.10;99.90
26954;DHT22;14508;50.924;11.600;2023-09-30T04:14:22;14.20;99.90
26954;DHT22;14508;50.924;11.600;2023-09-30T04:16:50;14.10;99.90
26954;DHT22;14508;50.924;11.600;2023-09-30T04:19:18;14.10;99.90
26954;DHT22;14508;50.924;11.600;2023-09-30T04:21:47;14.10;99.90
26954;DHT22;14508;50.924;11.600;2023-09-30T04:24:15;14.10;99.90
26954;DHT22;14508;50.924;11.600;2023-09-30T04:26:43;14.10;99.90
26954;DHT22;14508;50.924;11.600;2023-09-30T04:29:12;14.10;99.90
26954;DHT22;14508;50.924;11.600;2023-09-30T04:31:41;14.10;99.90
26954;DHT22;14508;50.924;11.600;2023-09-30T04:34:09;14.00;99.90
26954;DHT22;14508;50.924;11.600;2023-09-30T04:36:37;14.00;99.90
26954;DHT22;14508;50.924;11.600;2023-09-30T04:39:05;14.00;99.90
26954;DHT22;14508;50.924;11.600;2023-09-30T04:41:34;14.00;99.90
26954;DHT22;14508;50.924;11.600;2023-09-30T04:44:02;13.90;99.90
26954;DHT22;14508;50.924;11.600;2023-09-30T04:46:32;13.90;99.90
26954;DHT22;14508;50.924;11.600;2023-09-30T04:49:00;13.80;99.90
26954;DHT22;14508;50.924;11.600;2023-09-30T04:51:29;13.80;99.90
26954;DHT22;14508;50.924;11.600;2023-09-30T04:53:59;13.80;99.90
26954;DHT22;14508;50.924;11.600;2023-09-30T04:56:29;13.80;99.90
26954;DHT22;14508;50.924;11.600;2023-09-30T04:58:57;13.80;99.90
26954;DHT22;14508;50.924;11.600;2023-09-30T05:01:25;13.80;99.90
26954;DHT22;14508;50.924;11.600;2023-09-30T05:03:54;13.80;99.90
26954;DHT22;14508;50.924;11.600;2023-09-30T05:06:24;13.80;99.90
26954;DHT22;14508;50.924;11.600;2023-09-30T05:08:53;13.70;99.90
26954;DHT22;14508;50.924;11.600;2023-09-30T05:11:22;13.70;99.90
26954;DHT22;14508;50.924;11.600;2023-09-30T05:13:51;13.70;99.90
26954;DHT22;14508;50.924;11.600;2023-09-30T05:16:19;13.70;99.90
26954;DHT22;14508;50.924;11.600;2023-09-30T05:18:47;13.70;99.90
26954;DHT22;14508;50.924;11.600;2023-09-30T05:21:32;13.70;99.90
26954;DHT22;14508;50.924;11.600;2023-09-30T05:24:02;13.60;99.90
26954;DHT22;14508;50.924;11.600;2023-09-30T05:26:32;13.70;99.90
26954;DHT22;14508;50.924;11.600;2023-09-30T05:29:00;13.60;99.90
26954;DHT22;14508;50.924;11.600;2023-09-30T05:31:29;13.60;99.90
26954;DHT22;14508;50.924;11.600;2023-09-30T05:33:57;13.60;99.90
26954;DHT22;14508;50.924;11.600;2023-09-30T05:36:26;13.60;99.90
26954;DHT22;14508;50.924;11.600;2023-09-30T05:38:56;13.60;99.90
26954;DHT22;14508;50.924;11.600;2023-09-30T05:41:24;13.60;99.90
26954;DHT22;14508;50.924;11.600;2023-09-30T05:43:53;13.50;99.90
26954;DHT22;14508;50.924;11.600;2023-09-30T05:46:22;13.50;99.90
26954;DHT22;14508;50.924;11.600;2023-09-30T05:48:50;13.50;99.90
26954;DHT22;14508;50.924;11.600;2023-09-30T05:51:18;13.50;99.90
26954;DHT22;14508;50.924;11.600;2023-09-30T05:53:46;13.50;99.90
26954;DHT22;14508;50.924;11.600;2023-09-30T05:56:16;13.60;99.90
26954;DHT22;14508;50.924;11.600;2023-09-30T05:58:44;13.60;99.90
26954;DHT22;14508;50.924;11.600;2023-09-30T06:01:12;13.60;99.90
26954;DHT22;14508;50.924;11.600;2023-09-30T06:03:42;13.60;99.90
26954;DHT22;14508;50.924;11.600;2023-09-30T06:06:14;13.70;99.90
26954;DHT22;14508;50.924;11.600;2023-09-30T06:08:43;13.60;99.90
26954;DHT22;14508;50.924;11.600;2023-09-30T06:11:17;13.70;99.90
26954;DHT22;14508;50.924;11.600;2023-09-30T06:13:45;13.70;99.90
26954;DHT22;14508;50.924;11.600;2023-09-30T06:16:14;13.60;99.90
26954;DHT22;14508;50.924;11.600;2023-09-30T06:18:42;13.60;99.90
26954;DHT22;14508;50.924;11.600;2023-09-30T06:21:12;13.60;99.90
26954;DHT22;14508;50.924;11.600;2023-09-30T06:23:41;13.70;99.90
26954;DHT22;14508;50.924;11.600;2023-09-30T06:26:10;13.70;99.90
26954;DHT22;14508;50.924;11.600;2023-09-30T06:28:39;13.80;99.90
26954;DHT22;14508;50.924;11.600;2023-09-30T06:31:08;13.80;99.90
26954;DHT22;14508;50.924;11.600;2023-09-30T06:33:36;13.90;99.90
26954;DHT22;14508;50.924;11.600;2023-09-30T06:36:08;13.90;99.90
26954;DHT22;14508;50.924;11.600;2023-09-30T06:38:37;14.00;99.90
26954;DHT22;14508;50.924;11.600;2023-09-30T06:41:05;14.10;99.90
26954;DHT22;14508;50.924;11.600;2023-09-30T06:43:34;14.10;99.90
26954;DHT22;14508;50.924;11.600;2023-09-30T06:46:07;14.10;99.90
26954;DHT22;14508;50.924;11.600;2023-09-30T06:48:36;14.20;99.90
26954;DHT22;14508;50.924;11.600;2023-09-30T06:51:07;14.20;99.90
26954;DHT22;14508;50.924;11.600;2023-09-30T06:53:36;14.30;99.90
26954;DHT22;14508;50.924;11.600;2023-09-30T06:56:05;14.30;99.90
26954;DHT22;14508;50.924;11.600;2023-09-30T06:58:33;14.40;99.90
26954;DHT22;14508;50.924;11.600;2023-09-30T07:01:01;14.50;99.90
26954;DHT22;14508;50.924;11.600;2023-09-30T07:03:30;14.50;99.90
26954;DHT22;14508;50.924;11.600;2023-09-30T07:05:59;14.60;99.90
26954;DHT22;14508;50.924;11.600;2023-09-30T07:08:28;14.60;99.90
26954;DHT22;14508;50.924;11.600;2023-09-30T07:10:57;14.70;99.90
26954;DHT22;14508;50.924;11.600;2023-09-30T07:13:25;14.80;99.90
26954;DHT22;14508;50.924;11.600;2023-09-30T07:15:53;14.80;99.90
26954;DHT22;14508;50.924;11.600;2023-09-30T07:18:21;14.90;99.90
26954;DHT22;14508;50.924;11.600;2023-09-30T07:20:53;15.00;99.90
26954;DHT22;14508;50.924;11.600;2023-09-30T07:23:21;15.10;99.90
26954;DHT22;14508;50.924;11.600;2023-09-30T07:25:49;15.20;99.90
26954;DHT22;14508;50.924;11.600;2023-09-30T07:28:17;15.30;99.90
26954;DHT22;14508;50.924;11.600;2023-09-30T07:30:45;15.50;99.90
26954;DHT22;14508;50.924;11.600;2023-09-30T07:33:13;15.40;99.90
26954;DHT22;14508;50.924;11.600;2023-09-30T07:35:41;15.40;99.90
26954;DHT22;14508;50.924;11.600;2023-09-30T07:38:11;15.40;99.90
26954;DHT22;14508;50.924;11.600;2023-09-30T07:40:39;15.40;99.90
26954;DHT22;14508;50.924;11.600;2023-09-30T07:43:07;15.40;99.90
26954;DHT22;14508;50.924;11.600;2023-09-30T07:45:35;15.30;99.90
26954;DHT22;14508;50.924;11.600;2023-09-30T07:48:04;15.40;99.90
26954;DHT22;14508;50.924;11.600;2023-09-30T07:50:32;15.40;99.90
26954;DHT22;14508;50.924;11.600;2023-09-30T07:53:01;15.40;99.90
26954;DHT22;14508;50.924;11.600;2023-09-30T07:55:31;15.40;99.90
26954;DHT22;14508;50.924;11.600;2023-09-30T07:57:58;15.40;99.90
26954;DHT22;14508;50.924;11.600;2023-09-30T08:00:28;15.40;99.90
26954;DHT22;14508;50.924;11.600;2023-09-30T08:02:56;15.40;99.90
26954;DHT22;14508;50.924;11.600;2023-09-30T08:05:27;15.60;99.90
26954;DHT22;14508;50.924;11.600;2023-09-30T08:07:55;15.70;99.90
26954;DHT22;14508;50.924;11.600;2023-09-30T08:10:23;15.70;99.90
26954;DHT22;14508;50.924;11.600;2023-09-30T08:12:53;15.80;99.90
26954;DHT22;14508;50.924;11.600;2023-09-30T08:15:24;15.90;99.90
26954;DHT22;14508;50.924;11.600;2023-09-30T08:17:53;16.00;99.90
26954;DHT22;14508;50.924;11.600;2023-09-30T08:20:21;16.00;99.90
26954;DHT22;14508;50.924;11.600;2023-09-30T08:22:49;16.00;99.90
26954;DHT22;14508;50.924;11.600;2023-09-30T08:25:17;16.10;99.90
26954;DHT22;14508;50.924;11.600;2023-09-30T08:27:45;16.00;99.90
26954;DHT22;14508;50.924;11.600;2023-09-30T08:30:18;16.10;99.90
26954;DHT22;14508;50.924;11.600;2023-09-30T08:32:46;16.20;99.90
26954;DHT22;14508;50.924;11.600;2023-09-30T08:35:14;16.20;99.90
26954;DHT22;14508;50.924;11.600;2023-09-30T08:37:42;16.30;99.90
26954;DHT22;14508;50.924;11.600;2023-09-30T08:40:11;16.50;99.90
26954;DHT22;14508;50.924;11.600;2023-09-30T08:42:39;16.60;99.90
26954;DHT22;14508;50.924;11.600;2023-09-30T08:45:10;16.60;99.90
26954;DHT22;14508;50.924;11.600;2023-09-30T08:47:42;16.50;99.90
26954;DHT22;14508;50.924;11.600;2023-09-30T08:50:11;16.40;99.90
26954;DHT22;14508;50.924;11.600;2023-09-30T08:52:41;16.50;99.90
26954;DHT22;14508;50.924;11.600;2023-09-30T08:55:11;16.50;99.90
26954;DHT22;14508;50.924;11.600;2023-09-30T08:57:40;16.60;99.90
26954;DHT22;14508;50.924;11.600;2023-09-30T09:00:10;16.70;99.90
26954;DHT22;14508;50.924;11.600;2023-09-30T09:02:40;16.70;99.90
26954;DHT22;14508;50.924;11.600;2023-09-30T09:05:10;16.70;99.90
26954;DHT22;14508;50.924;11.600;2023-09-30T09:07:39;16.80;99.90
26954;DHT22;14508;50.924;11.600;2023-09-30T09:10:08;16.80;99.90
26954;DHT22;14508;50.924;11.600;2023-09-30T09:12:37;16.80;99.90
26954;DHT22;14508;50.924;11.600;2023-09-30T09:15:08;16.90;99.90
26954;DHT22;14508;50.924;11.600;2023-09-30T09:17:41;17.00;99.90
26954;DHT22;14508;50.924;11.600;2023-09-30T09:20:16;17.00;99.90
26954;DHT22;14508;50.924;11.600;2023-09-30T09:22:48;17.00;99.90
26954;DHT22;14508;50.924;11.600;2023-09-30T09:25:17;17.10;99.90
26954;DHT22;14508;50.924;11.600;2023-09-30T09:27:45;17.20;99.90
26954;DHT22;14508;50.924;11.600;2023-09-30T09:30:18;17.20;99.80
26954;DHT22;14508;50.924;11.600;2023-09-30T09:32:54;17.40;98.60
26954;DHT22;14508;50.924;11.600;2023-09-30T09:35:24;17.50;98.10
26954;DHT22;14508;50.924;11.600;2023-09-30T09:37:56;17.50;96.60
26954;DHT22;14508;50.924;11.600;2023-09-30T09:40:26;17.60;94.70
26954;DHT22;14508;50.924;11.600;2023-09-30T09:42:55;17.70;93.90
26954;DHT22;14508;50.924;11.600;2023-09-30T09:45:25;17.70;93.80
26954;DHT22;14508;50.924;11.600;2023-09-30T09:47:54;17.70;92.70
26954;DHT22;14508;50.924;11.600;2023-09-30T09:50:24;17.80;92.90
26954;DHT22;14508;50.924;11.600;2023-09-30T09:52:53;17.90;92.30
26954;DHT22;14508;50.924;11.600;2023-09-30T09:55:23;18.00;91.10
26954;DHT22;14508;50.924;11.600;2023-09-30T09:57:52;18.10;90.10
26954;DHT22;14508;50.924;11.600;2023-09-30T10:00:22;18.20;88.80
26954;DHT22;14508;50.924;11.600;2023-09-30T10:02:51;18.20;87.30
26954;DHT22;14508;50.924;11.600;2023-09-30T10:05:20;18.20;85.60
26954;DHT22;14508;50.924;11.600;2023-09-30T10:07:54;18.20;84.60
26954;DHT22;14508;50.924;11.600;2023-09-30T10:10:24;18.30;84.00
26954;DHT22;14508;50.924;11.600;2023-09-30T10:12:53;18.30;80.30
26954;DHT22;14508;50.924;11.600;2023-09-30T10:15:35;18.40;79.30
26954;DHT22;14508;50.924;11.600;2023-09-30T10:18:04;18.40;78.80
26954;DHT22;14508;50.924;11.600;2023-09-30T10:20:39;18.50;76.80
26954;DHT22;14508;50.924;11.600;2023-09-30T10:23:23;18.50;74.90
26954;DHT22;14508;50.924;11.600;2023-09-30T10:25:54;18.60;74.00
26954;DHT22;14508;50.924;11.600;2023-09-30T10:28:38;18.60;74.70
26954;DHT22;14508;50.924;11.600;2023-09-30T10:31:12;18.80;75.30
26954;DHT22;14508;50.924;11.600;2023-09-30T10:34:20;18.90;74.10
26954;DHT22;14508;50.924;11.600;2023-09-30T10:36:49;19.00;73.90
26954;DHT22;14508;50.924;11.600;2023-09-30T10:39:58;19.10;72.80
26954;DHT22;14508;50.924;11.600;2023-09-30T10:42:44;19.30;72.30
26954;DHT22;14508;50.924;11.600;2023-09-30T10:45:42;19.50;71.10
26954;DHT22;14508;50.924;11.600;2023-09-30T10:48:36;19.60;68.40
26954;DHT22;14508;50.924;11.600;2023-09-30T10:51:12;19.60;66.70
26954;DHT22;14508;50.924;11.600;2023-09-30T10:53:49;19.50;67.40
26954;DHT22;14508;50.924;11.600;2023-09-30T10:56:20;19.50;68.00
26954;DHT22;14508;50.924;11.600;2023-09-30T10:58:50;19.50;67.50
26954;DHT22;14508;50.924;11.600;2023-09-30T11:01:19;19.50;63.70
26954;DHT22;14508;50.924;11.600;2023-09-30T11:03:49;19.50;63.30
26954;DHT22;14508;50.924;11.600;2023-09-30T11:06:20;19.50;60.80
26954;DHT22;14508;50.924;11.600;2023-09-30T11:08:52;19.50;60.00
26954;DHT22;14508;50.924;11.600;2023-09-30T11:11:33;19.60;57.90
26954;DHT22;14508;50.924;11.600;2023-09-30T11:14:02;19.60;57.50
26954;DHT22;14508;50.924;11.600;2023-09-30T11:16:41;19.60;58.40
26954;DHT22;14508;50.924;11.600;2023-09-30T11:19:10;19.70;59.00
26954;DHT22;14508;50.924;11.600;2023-09-30T11:21:39;19.70;59.20
26954;DHT22;14508;50.924;11.600;2023-09-30T11:24:07;19.80;59.30
26954;DHT22;14508;50.924;11.600;2023-09-30T11:26:37;19.80;59.00
26954;DHT22;14508;50.924;11.600;2023-09-30T11:29:08;19.80;58.90
26954;DHT22;14508;50.924;11.600;2023-09-30T11:31:38;19.80;58.70
26954;DHT22;14508;50.924;11.600;2023-09-30T11:34:07;19.90;58.90
26954;DHT22;14508;50.924;11.600;2023-09-30T11:36:35;19.90;58.90
26954;DHT22;14508;50.924;11.600;2023-09-30T11:39:04;19.80;58.40
26954;DHT22;14508;50.924;11.600;2023-09-30T11:41:34;19.80;58.60
26954;DHT22;14508;50.924;11.600;2023-09-30T11:44:06;19.80;58.00
26954;DHT22;14508;50.924;11.600;2023-09-30T11:46:51;19.90;58.10
26954;DHT22;14508;50.924;11.600;2023-09-30T11:49:27;20.00;57.70
26954;DHT22;14508;50.924;11.600;2023-09-30T11:51:57;20.00;57.20
26954;DHT22;14508;50.924;11.600;2023-09-30T11:54:30;20.00;56.60
26954;DHT22;14508;50.924;11.600;2023-09-30T11:57:00;19.90;56.30
26954;DHT22;14508;50.924;11.600;2023-09-30T11:59:29;19.90;55.40
26954;DHT22;14508;50.924;11.600;2023-09-30T12:01:58;19.80;55.50
26954;DHT22;14508;50.924;11.600;2023-09-30T12:04:29;19.80;55.40
26954;DHT22;14508;50.924;11.600;2023-09-30T12:06:58;19.80;55.20
26954;DHT22;14508;50.924;11.600;2023-09-30T12:09:26;19.70;55.60
26954;DHT22;14508;50.924;11.600;2023-09-30T12:11:55;19.80;55.90
26954;DHT22;14508;50.924;11.600;2023-09-30T12:14:24;19.90;55.80
26954;DHT22;14508;50.924;11.600;2023-09-30T12:16:54;20.00;56.10
26954;DHT22;14508;50.924;11.600;2023-09-30T12:19:22;20.10;56.10
26954;DHT22;14508;50.924;11.600;2023-09-30T12:21:53;20.20;56.10
26954;DHT22;14508;50.924;11.600;2023-09-30T12:24:22;20.30;56.50
26954;DHT22;14508;50.924;11.600;2023-09-30T12:26:51;20.30;56.80
26954;DHT22;14508;50.924;11.600;2023-09-30T12:29:20;20.20;57.10
26954;DHT22;14508;50.924;11.600;2023-09-30T12:31:50;20.20;57.30
26954;DHT22;14508;50.924;11.600;2023-09-30T12:34:22;20.20;56.50
26954;DHT22;14508;50.924;11.600;2023-09-30T12:36:53;20.20;56.70
26954;DHT22;14508;50.924;11.600;2023-09-30T12:39:21;20.20;56.80
26954;DHT22;14508;50.924;11.600;2023-09-30T12:41:52;20.20;55.30
26954;DHT22;14508;50.924;11.600;2023-09-30T12:44:20;20.20;54.80
26954;DHT22;14508;50.924;11.600;2023-09-30T12:46:50;20.10;53.90
26954;DHT22;14508;50.924;11.600;2023-09-30T12:49:18;20.10;54.10
26954;DHT22;14508;50.924;11.600;2023-09-30T12:51:48;20.20;53.90
26954;DHT22;14508;50.924;11.600;2023-09-30T12:54:17;20.20;54.00
26954;DHT22;14508;50.924;11.600;2023-09-30T12:56:46;20.20;54.20
26954;DHT22;14508;50.924;11.600;2023-09-30T12:59:14;20.20;54.40
26954;DHT22;14508;50.924;11.600;2023-09-30T13:01:44;20.20;54.40
26954;DHT22;14508;50.924;11.600;2023-09-30T13:04:13;20.20;54.10
26954;DHT22;14508;50.924;11.600;2023-09-30T13:06:42;20.20;54.40
26954;DHT22;14508;50.924;11.600;2023-09-30T13:09:12;20.20;54.70
26954;DHT22;14508;50.924;11.600;2023-09-30T13:11:40;20.20;54.90
26954;DHT22;14508;50.924;11.600;2023-09-30T13:14:08;20.30;54.80
26954;DHT22;14508;50.924;11.600;2023-09-30T13:16:36;20.30;54.60
26954;DHT22;14508;50.924;11.600;2023-09-30T13:19:04;20.30;55.10
26954;DHT22;14508;50.924;11.600;2023-09-30T13:21:32;20.30;54.80
26954;DHT22;14508;50.924;11.600;2023-09-30T13:24:00;20.50;54.80
26954;DHT22;14508;50.924;11.600;2023-09-30T13:26:30;20.50;54.50
26954;DHT22;14508;50.924;11.600;2023-09-30T13:28:58;20.50;54.60
26954;DHT22;14508;50.924;11.600;2023-09-30T13:31:26;20.50;54.70
26954;DHT22;14508;50.924;11.600;2023-09-30T13:33:54;20.50;55.00
26954;DHT22;14508;50.924;11.600;2023-09-30T13:36:22;20.50;55.20
26954;DHT22;14508;50.924;11.600;2023-09-30T13:38:50;20.60;55.50
26954;DHT22;14508;50.924;11.600;2023-09-30T13:41:18;20.60;55.20
26954;DHT22;14508;50.924;11.600;2023-09-30T13:43:48;20.60;55.00
26954;DHT22;14508;50.924;11.600;2023-09-30T13:46:16;20.60;55.20
26954;DHT22;14508;50.924;11.600;2023-09-30T13:48:44;20.60;55.20
26954;DHT22;14508;50.924;11.600;2023-09-30T13:51:13;20.60;55.30
26954;DHT22;14508;50.924;11.600;2023-09-30T13:53:41;20.70;55.40
26954;DHT22;14508;50.924;11.600;2023-09-30T13:56:10;20.60;54.40
26954;DHT22;14508;50.924;11.600;2023-09-30T13:58:38;20.60;54.70
26954;DHT22;14508;50.924;11.600;2023-09-30T14:01:07;20.50;55.10
26954;DHT22;14508;50.924;11.600;2023-09-30T14:03:37;20.50;54.50
26954;DHT22;14508;50.924;11.600;2023-09-30T14:06:09;20.50;53.50
26954;DHT22;14508;50.924;11.600;2023-09-30T14:08:39;20.50;53.70
26954;DHT22;14508;50.924;11.600;2023-09-30T14:11:09;20.50;53.90
26954;DHT22;14508;50.924;11.600;2023-09-30T14:13:38;20.40;54.30
26954;DHT22;14508;50.924;11.600;2023-09-30T14:16:08;20.50;54.60
26954;DHT22;14508;50.924;11.600;2023-09-30T14:18:36;20.40;54.30
26954;DHT22;14508;50.924;11.600;2023-09-30T14:21:06;20.50;54.40
26954;DHT22;14508;50.924;11.600;2023-09-30T14:23:34;20.40;54.60
26954;DHT22;14508;50.924;11.600;2023-09-30T14:26:06;20.40;54.80
26954;DHT22;14508;50.924;11.600;2023-09-30T14:28:38;20.40;54.80
26954;DHT22;14508;50.924;11.600;2023-09-30T14:31:08;20.40;54.90
26954;DHT22;14508;50.924;11.600;2023-09-30T14:33:36;20.50;55.40
26954;DHT22;14508;50.924;11.600;2023-09-30T14:36:05;20.50;55.40
26954;DHT22;14508;50.924;11.600;2023-09-30T14:38:33;20.50;55.30
26954;DHT22;14508;50.924;11.600;2023-09-30T14:41:01;20.50;55.60
26954;DHT22;14508;50.924;11.600;2023-09-30T14:43:33;20.50;55.40
26954;DHT22;14508;50.924;11.600;2023-09-30T14:46:02;20.50;55.10
26954;DHT22;14508;50.924;11.600;2023-09-30T14:48:32;20.40;54.80
26954;DHT22;14508;50.924;11.600;2023-09-30T14:51:00;20.40;54.80
26954;DHT22;14508;50.924;11.600;2023-09-30T14:53:29;20.30;54.60
26954;DHT22;14508;50.924;11.600;2023-09-30T14:55:58;20.30;54.70
26954;DHT22;14508;50.924;11.600;2023-09-30T14:58:26;20.30;55.20
26954;DHT22;14508;50.924;11.600;2023-09-30T15:00:54;20.30;55.60
26954;DHT22;14508;50.924;11.600;2023-09-30T15:03:22;20.40;55.80
26954;DHT22;14508;50.924;11.600;2023-09-30T15:05:58;20.40;56.20
26954;DHT22;14508;50.924;11.600;2023-09-30T15:08:28;20.40;56.20
26954;DHT22;14508;50.924;11.600;2023-09-30T15:10:58;20.30;55.90
26954;DHT22;14508;50.924;11.600;2023-09-30T15:13:27;20.30;55.80
26954;DHT22;14508;50.924;11.600;2023-09-30T15:15:55;20.20;56.00
26954;DHT22;14508;50.924;11.600;2023-09-30T15:18:24;20.20;56.10
26954;DHT22;14508;50.924;11.600;2023-09-30T15:20:52;20.20;56.10
26954;DHT22;14508;50.924;11.600;2023-09-30T15:23:21;20.10;55.60
26954;DHT22;14508;50.924;11.600;2023-09-30T15:25:49;20.10;55.60
26954;DHT22;14508;50.924;11.600;2023-09-30T15:28:17;20.00;55.60
26954;DHT22;14508;50.924;11.600;2023-09-30T15:30:45;20.00;55.30